createdAt,value
2023-01-23T00:01:43.204Z,101529.25
2023-01-23T00:04:13.810Z,101538.81
2023-01-23T00:06:43.659Z,101535.88
2023-01-23T00:09:13.204Z,101538.56
2023-01-23T00:11:41.479Z,101537.94
2023-01-23T00:14:09.582Z,101550.25
2023-01-23T00:16:37.660Z,101545.94
2023-01-23T00:19:05.863Z,101548.06
2023-01-23T00:21:35.047Z,101552.00
2023-01-23T00:24:04.573Z,101549.84
2023-01-23T00:26:34.375Z,101548.53
2023-01-23T00:29:03.095Z,101554.41
2023-01-23T00:31:33.870Z,101559.50
2023-01-23T00:34:03.947Z,101565.34
2023-01-23T00:36:34.318Z,101557.00
2023-01-23T00:39:04.771Z,101558.34
2023-01-23T00:41:32.896Z,101553.81
2023-01-23T00:44:01.049Z,101558.53
2023-01-23T00:46:29.204Z,101560.44
2023-01-23T00:48:58.386Z,101554.31
2023-01-23T00:51:26.696Z,101551.13
2023-01-23T00:53:55.016Z,101567.19
2023-01-23T00:56:24.550Z,101574.13
2023-01-23T00:58:52.920Z,101577.00
2023-01-23T01:01:22.734Z,101591.94
2023-01-23T01:03:51.209Z,101588.00
2023-01-23T01:06:19.285Z,101589.00
2023-01-23T01:08:47.605Z,101590.38
2023-01-23T01:11:16.021Z,101592.25
2023-01-23T01:13:45.861Z,101595.66
2023-01-23T01:16:14.879Z,101597.31
2023-01-23T01:18:43.304Z,101614.06
2023-01-23T01:21:13.984Z,101593.28
2023-01-23T01:23:42.172Z,101602.84
2023-01-23T01:26:11.242Z,101599.13
2023-01-23T01:28:42.306Z,101608.25
2023-01-23T01:31:14.461Z,101589.84
2023-01-23T01:33:43.804Z,101592.75
2023-01-23T01:36:12.850Z,101602.59
2023-01-23T01:38:41.216Z,101594.84
2023-01-23T01:41:10.562Z,101596.81
2023-01-23T01:43:39.062Z,101608.75
2023-01-23T01:46:22.651Z,101602.03
2023-01-23T01:49:10.375Z,101611.81
2023-01-23T01:51:42.297Z,101600.06
2023-01-23T01:54:18.422Z,101602.97
2023-01-23T01:56:51.260Z,101604.34
2023-01-23T01:59:21.293Z,101614.47
2023-01-23T02:01:57.500Z,101600.31
2023-01-23T02:04:25.855Z,101601.69
2023-01-23T02:06:55.205Z,101593.66
2023-01-23T02:09:27.435Z,101599.47
2023-01-23T02:11:55.629Z,101602.94
2023-01-23T02:14:25.903Z,101593.34
2023-01-23T02:17:00.328Z,101611.16
2023-01-23T02:19:51.953Z,101603.81
2023-01-23T02:22:34.140Z,101603.81
2023-01-23T02:25:09.441Z,101605.38
2023-01-23T02:27:39.035Z,101604.41
2023-01-23T02:30:08.680Z,101608.78
2023-01-23T02:32:37.017Z,101613.50
2023-01-23T02:35:12.686Z,101616.44
2023-01-23T02:37:43.859Z,101646.69
2023-01-23T02:40:13.042Z,101620.38
2023-01-23T02:42:46.305Z,101625.13
2023-01-23T02:45:14.576Z,101630.00
2023-01-23T02:47:42.658Z,101630.34
2023-01-23T02:50:11.758Z,101625.53
2023-01-23T02:52:39.888Z,101660.03
2023-01-23T02:55:08.599Z,101641.50
2023-01-23T02:57:36.788Z,101644.53
2023-01-23T03:00:20.825Z,101632.94
2023-01-23T03:02:49.770Z,101646.00
2023-01-23T03:05:18.227Z,101647.53
2023-01-23T03:07:46.382Z,101639.72
2023-01-23T03:10:15.228Z,101642.16
2023-01-23T03:12:43.619Z,101633.03
2023-01-23T03:15:15.365Z,101640.03
2023-01-23T03:17:43.453Z,101645.69
2023-01-23T03:20:12.820Z,101647.63
2023-01-23T03:22:41.006Z,101652.84
2023-01-23T03:25:09.931Z,101640.53
2023-01-23T03:27:38.143Z,101638.06
2023-01-23T03:30:16.100Z,101637.97
2023-01-23T03:32:46.965Z,101635.69
2023-01-23T03:35:16.702Z,101627.66
2023-01-23T03:37:45.006Z,101650.88
2023-01-23T03:40:35.022Z,101640.25
2023-01-23T03:43:03.110Z,101637.34
2023-01-23T03:45:31.301Z,101655.81
2023-01-23T03:48:01.055Z,101652.78
2023-01-23T03:50:29.162Z,101649.09
2023-01-23T03:52:57.389Z,101647.16
2023-01-23T03:55:25.584Z,101653.94
2023-01-23T03:57:59.823Z,101662.47
2023-01-23T04:00:27.897Z,101654.03
2023-01-23T04:02:56.026Z,101654.28
2023-01-23T04:05:25.555Z,101647.81
2023-01-23T04:07:53.758Z,101659.25
2023-01-23T04:10:22.376Z,101656.94
2023-01-23T04:12:50.722Z,101664.56
2023-01-23T04:15:19.385Z,101670.06
2023-01-23T04:17:47.453Z,101655.69
2023-01-23T04:20:15.881Z,101660.63
2023-01-23T04:22:45.533Z,101669.41
2023-01-23T04:25:13.686Z,101663.91
2023-01-23T04:27:41.843Z,101669.00
2023-01-23T04:30:10.956Z,101674.72
2023-01-23T04:32:39.046Z,101685.91
2023-01-23T04:35:07.868Z,101688.44
2023-01-23T04:37:36.051Z,101679.81
2023-01-23T04:40:06.278Z,101690.94
2023-01-23T04:42:34.682Z,101686.66
2023-01-23T04:45:02.810Z,101688.75
2023-01-23T04:47:30.920Z,101696.97
2023-01-23T04:49:59.192Z,101701.50
2023-01-23T04:52:27.299Z,101695.09
2023-01-23T04:54:55.483Z,101693.41
2023-01-23T04:57:25.304Z,101693.72
2023-01-23T04:59:53.476Z,101698.91
2023-01-23T05:02:21.663Z,101697.22
2023-01-23T05:04:49.769Z,101696.06
2023-01-23T05:07:18.005Z,101703.09
2023-01-23T05:09:46.124Z,101709.59
2023-01-23T05:12:14.202Z,101721.63
2023-01-23T05:14:43.694Z,101723.28
2023-01-23T05:17:11.757Z,101727.31
2023-01-23T05:19:39.977Z,101725.78
2023-01-23T05:22:08.120Z,101724.16
2023-01-23T05:24:36.387Z,101741.19
2023-01-23T05:27:04.688Z,101741.91
2023-01-23T05:29:32.845Z,101744.72
2023-01-23T05:32:02.423Z,101752.06
2023-01-23T05:34:30.636Z,101752.06
2023-01-23T05:36:58.765Z,101767.56
2023-01-23T05:39:26.913Z,101767.81
2023-01-23T05:41:55.267Z,101764.44
2023-01-23T05:44:23.413Z,101763.09
2023-01-23T05:46:51.447Z,101766.38
2023-01-23T05:49:20.922Z,101766.38
2023-01-23T05:51:49.628Z,101780.25
2023-01-23T05:54:17.776Z,101785.44
2023-01-23T05:56:45.861Z,101778.44
2023-01-23T05:59:14.538Z,101781.63
2023-01-23T06:01:42.976Z,101763.72
2023-01-23T06:04:13.259Z,101758.66
2023-01-23T06:06:51.163Z,101772.03
2023-01-23T06:09:19.435Z,101773.44
2023-01-23T06:11:47.617Z,101783.97
2023-01-23T06:14:15.765Z,101796.41
2023-01-23T06:16:44.045Z,101783.72
2023-01-23T06:19:13.273Z,101790.31
2023-01-23T06:21:41.460Z,101797.59
2023-01-23T06:24:11.186Z,101789.06
2023-01-23T06:26:39.328Z,101784.69
2023-01-23T06:29:07.467Z,101800.56
2023-01-23T06:31:35.829Z,101788.47
2023-01-23T06:34:04.350Z,101780.47
2023-01-23T06:36:32.841Z,101789.75
2023-01-23T06:39:01.035Z,101785.78
2023-01-23T06:41:30.583Z,101785.72
2023-01-23T06:43:58.764Z,101782.66
2023-01-23T06:46:27.010Z,101788.47
2023-01-23T06:48:55.281Z,101787.66
2023-01-23T06:51:23.858Z,101808.25
2023-01-23T06:53:52.095Z,101793.91
2023-01-23T06:56:20.454Z,101795.25
2023-01-23T06:58:50.580Z,101814.25
2023-01-23T07:01:20.181Z,101802.91
2023-01-23T07:03:48.432Z,101820.50
2023-01-23T07:06:17.322Z,101810.59
2023-01-23T07:08:45.677Z,101817.16
2023-01-23T07:11:13.946Z,101806.97
2023-01-23T07:13:42.071Z,101822.00
2023-01-23T07:16:11.612Z,101829.03
2023-01-23T07:18:40.027Z,101828.94
2023-01-23T07:21:08.379Z,101829.03
2023-01-23T07:23:36.457Z,101835.66
2023-01-23T07:26:09.544Z,101842.00
2023-01-23T07:28:38.005Z,101831.72
2023-01-23T07:31:07.058Z,101835.31
2023-01-23T07:33:36.813Z,101842.34
2023-01-23T07:36:07.371Z,101845.78
2023-01-23T07:38:35.544Z,101840.22
2023-01-23T07:41:03.793Z,101831.44
2023-01-23T07:43:31.901Z,101836.53
2023-01-23T07:46:00.449Z,101848.19
2023-01-23T07:48:29.692Z,101842.06
2023-01-23T07:51:03.285Z,101857.25
2023-01-23T07:53:32.166Z,101848.31
2023-01-23T07:56:01.323Z,101846.22
2023-01-23T07:58:29.412Z,101860.94
2023-01-23T08:00:57.524Z,101850.00
2023-01-23T08:03:28.950Z,101851.16
2023-01-23T08:05:59.801Z,101853.59
2023-01-23T08:08:27.921Z,101861.41
2023-01-23T08:10:56.094Z,101865.72
2023-01-23T08:13:24.196Z,101864.09
2023-01-23T08:15:53.486Z,101865.25
2023-01-23T08:18:21.661Z,101867.69
2023-01-23T08:20:55.121Z,101871.84
2023-01-23T08:23:27.376Z,101877.19
2023-01-23T08:25:56.314Z,101857.19
2023-01-23T08:28:25.484Z,101869.78
2023-01-23T08:30:54.522Z,101874.63
2023-01-23T08:33:23.820Z,101874.84
2023-01-23T08:35:53.148Z,101873.59
2023-01-23T08:38:22.320Z,101864.91
2023-01-23T08:40:53.479Z,101870.78
2023-01-23T08:43:22.291Z,101882.94
2023-01-23T08:45:53.094Z,101875.06
2023-01-23T08:48:22.851Z,101866.28
2023-01-23T08:50:52.612Z,101881.66
2023-01-23T08:53:21.132Z,101857.28
2023-01-23T08:55:49.417Z,101864.09
2023-01-23T08:58:18.979Z,101863.63
2023-01-23T09:00:48.858Z,101852.66
2023-01-23T09:03:17.056Z,101847.00
2023-01-23T09:05:45.131Z,101858.78
2023-01-23T09:08:13.358Z,101852.19
2023-01-23T09:10:41.547Z,101851.63
2023-01-23T09:13:09.866Z,101849.44
2023-01-23T09:15:41.093Z,101847.94
2023-01-23T09:18:09.271Z,101860.31
2023-01-23T09:20:39.220Z,101858.06
2023-01-23T09:23:07.324Z,101856.25
2023-01-23T09:25:35.774Z,101848.28
2023-01-23T09:28:03.860Z,101856.25
2023-01-23T09:30:31.944Z,101856.34
2023-01-23T09:33:01.561Z,101860.53
2023-01-23T09:35:29.831Z,101852.75
2023-01-23T09:38:06.985Z,101861.91
2023-01-23T09:40:38.437Z,101851.88
2023-01-23T09:43:16.566Z,101859.47
2023-01-23T09:45:52.316Z,101849.31
2023-01-23T09:48:28.228Z,101854.63
2023-01-23T09:51:00.389Z,101846.31
2023-01-23T09:53:36.633Z,101847.03
2023-01-23T09:56:15.499Z,101852.66
2023-01-23T09:58:54.351Z,101862.84
2023-01-23T10:01:22.823Z,101860.06
2023-01-23T10:03:52.937Z,101866.88
2023-01-23T10:06:24.460Z,101863.66
2023-01-23T10:09:17.004Z,101856.38
2023-01-23T10:11:57.272Z,101848.75
2023-01-23T10:14:46.084Z,101849.69
2023-01-23T10:17:21.444Z,101852.34
2023-01-23T10:20:15.319Z,101838.81
2023-01-23T10:22:48.426Z,101835.56
2023-01-23T10:25:21.338Z,101847.03
2023-01-23T10:27:51.291Z,101823.56
2023-01-23T10:30:28.148Z,101829.69
2023-01-23T10:32:59.811Z,101829.94
2023-01-23T10:35:38.083Z,101826.69
2023-01-23T10:38:18.160Z,101832.47
2023-01-23T10:41:06.346Z,101847.81
2023-01-23T10:43:34.480Z,101826.34
2023-01-23T10:46:03.595Z,101828.44
2023-01-23T10:48:42.159Z,101833.63
2023-01-23T10:51:56.949Z,101833.63
2023-01-23T10:54:34.091Z,101832.47
2023-01-23T10:57:03.443Z,101819.66
2023-01-23T10:59:35.762Z,101817.47
2023-01-23T11:02:20.535Z,101824.84
2023-01-23T11:04:53.460Z,101827.97
2023-01-23T11:07:25.040Z,101823.09
2023-01-23T11:09:56.656Z,101818.97
2023-01-23T11:12:26.542Z,101820.47
2023-01-23T11:15:21.099Z,101822.53
2023-01-23T11:17:50.354Z,101842.63
2023-01-23T11:20:28.338Z,101839.16
2023-01-23T11:23:08.609Z,101829.03
2023-01-23T11:25:40.325Z,101840.22
2023-01-23T11:28:23.601Z,101836.53
2023-01-23T11:31:11.564Z,101831.31
2023-01-23T11:33:47.873Z,101819.97
2023-01-23T11:36:42.859Z,101820.44
2023-01-23T11:39:21.181Z,101824.63
2023-01-23T11:41:49.628Z,101816.91
2023-01-23T11:44:21.156Z,101825.31
2023-01-23T11:47:24.688Z,101803.72
2023-01-23T11:50:11.792Z,101816.31
2023-01-23T11:52:50.464Z,101813.31
2023-01-23T11:55:51.436Z,101831.53
2023-01-23T11:58:49.067Z,101819.31
2023-01-23T12:01:25.096Z,101822.44
2023-01-23T12:04:34.314Z,101827.59
2023-01-23T12:07:16.934Z,101836.59
2023-01-23T12:09:55.734Z,101838.00
2023-01-23T12:12:42.328Z,101841.13
2023-01-23T12:15:23.116Z,101838.22
2023-01-23T12:20:48.336Z,101843.44
2023-01-23T12:23:27.586Z,101857.16
2023-01-23T12:26:06.998Z,101844.00
2023-01-23T12:28:58.982Z,101846.91
2023-01-23T12:31:43.124Z,101851.72
2023-01-23T12:34:25.586Z,101847.81
2023-01-23T12:37:30.102Z,101846.38
2023-01-23T12:40:03.710Z,101844.19
2023-01-23T12:42:37.874Z,101849.41
2023-01-23T12:45:17.017Z,101847.22
2023-01-23T12:47:54.030Z,101844.88
2023-01-23T12:50:38.009Z,101863.22
2023-01-23T12:53:10.849Z,101857.13
2023-01-23T12:55:44.467Z,101861.63
2023-01-23T12:58:17.661Z,101865.59
2023-01-23T13:01:10.686Z,101860.13
2023-01-23T13:04:02.940Z,101867.16
2023-01-23T13:06:45.552Z,101865.41
2023-01-23T13:09:22.676Z,101858.38
2023-01-23T13:12:08.189Z,101860.09
2023-01-23T13:15:06.755Z,101873.78
2023-01-23T13:17:39.482Z,101875.56
2023-01-23T13:20:42.025Z,101889.38
2023-01-23T13:23:30.919Z,101871.38
2023-01-23T13:26:29.204Z,101871.59
2023-01-23T13:29:01.616Z,101872.09
2023-01-23T13:31:36.704Z,101880.22
2023-01-23T13:34:42.132Z,101875.47
2023-01-23T13:37:52.356Z,101878.69
2023-01-23T13:40:23.556Z,101889.69
2023-01-23T13:42:52.206Z,101884.56
2023-01-23T13:45:27.233Z,101884.41
2023-01-23T14:22:58.231Z,101912.06
2023-01-23T14:25:28.502Z,101902.47
2023-01-23T14:28:06.732Z,101915.22
2023-01-23T14:30:34.909Z,101922.34
2023-01-23T14:33:11.630Z,101921.72
2023-01-23T14:35:40.316Z,101924.53
2023-01-23T14:38:09.164Z,101926.66
2023-01-23T14:40:50.685Z,101930.97
2023-01-23T14:43:23.532Z,101936.47
2023-01-23T14:46:02.425Z,101939.34
2023-01-23T14:48:35.448Z,101936.91
2023-01-23T14:51:11.080Z,101948.38
2023-01-23T14:53:42.785Z,101938.00
2023-01-23T14:56:13.772Z,101945.13
2023-01-23T14:58:42.737Z,101945.16
2023-01-23T15:01:12.404Z,101949.44
2023-01-23T15:03:43.220Z,101949.59
2023-01-23T15:06:16.835Z,101939.78
2023-01-23T15:08:45.347Z,101949.34
2023-01-23T15:11:15.531Z,101954.66
2023-01-23T15:13:48.340Z,101961.94
2023-01-23T15:16:21.067Z,101961.34
2023-01-23T15:18:59.967Z,101961.06
2023-01-23T15:21:34.081Z,101961.75
2023-01-23T15:24:26.892Z,101959.63
2023-01-23T15:27:03.787Z,101957.81
2023-01-23T15:29:32.860Z,101948.88
2023-01-23T15:32:02.245Z,101961.97
2023-01-23T15:34:33.396Z,101970.84
2023-01-23T15:37:08.731Z,101969.28
2023-01-23T15:39:41.323Z,101962.44
2023-01-23T15:42:29.987Z,101964.56
2023-01-23T15:45:01.474Z,101966.28
2023-01-23T15:47:31.059Z,101975.44
2023-01-23T15:50:01.755Z,101978.22
2023-01-23T15:52:32.104Z,101982.59
2023-01-23T15:55:04.447Z,101979.59
2023-01-23T15:57:33.964Z,101985.69
2023-01-23T16:00:02.192Z,101984.72
2023-01-23T16:02:32.560Z,101977.25
2023-01-23T16:05:02.138Z,101984.56
2023-01-23T16:07:34.680Z,101991.13
2023-01-23T16:10:05.138Z,101982.81
2023-01-23T16:12:38.781Z,101988.91
2023-01-23T16:15:15.694Z,101997.50
2023-01-23T16:17:44.058Z,101990.19
2023-01-23T16:20:15.632Z,101990.78
2023-01-23T16:22:44.415Z,101998.34
2023-01-23T16:25:22.412Z,101992.63
2023-01-23T16:27:53.105Z,101996.28
2023-01-23T16:30:23.595Z,101997.31
2023-01-23T16:32:52.078Z,102004.22
2023-01-23T16:35:20.799Z,102001.81
2023-01-23T16:37:53.413Z,101998.56
2023-01-23T16:40:24.335Z,102000.59
2023-01-23T16:42:56.988Z,102013.78
2023-01-23T16:45:26.799Z,102001.41
2023-01-23T16:47:55.523Z,102007.91
2023-01-23T16:50:30.168Z,102011.38
2023-01-23T16:53:02.864Z,102010.56
2023-01-23T16:55:35.921Z,101994.31
2023-01-23T16:58:07.723Z,102001.22
2023-01-23T17:00:43.801Z,102013.44
2023-01-23T17:03:21.358Z,101999.00
2023-01-23T17:05:49.841Z,102000.03
2023-01-23T17:08:19.017Z,102000.63
2023-01-23T17:10:48.569Z,102010.38
2023-01-23T17:13:20.847Z,102007.97
2023-01-23T17:15:50.384Z,101997.59
2023-01-23T17:18:32.298Z,102005.13
2023-01-23T17:21:00.807Z,102007.78
2023-01-23T17:23:29.005Z,102016.09
2023-01-23T17:26:01.111Z,102009.41
2023-01-23T17:28:31.229Z,102001.28
2023-01-23T17:31:01.860Z,102004.31
2023-01-23T17:33:32.822Z,101999.06
2023-01-23T17:36:03.390Z,101998.63
2023-01-23T17:38:32.212Z,101993.53
2023-01-23T17:41:00.361Z,101987.06
2023-01-23T17:43:30.372Z,101992.75
2023-01-23T17:45:58.675Z,101995.38
2023-01-23T17:48:29.439Z,101992.72
2023-01-23T17:50:57.836Z,101978.31
2023-01-23T17:53:28.026Z,101989.72
2023-01-23T17:55:56.300Z,101993.34
2023-01-23T17:58:26.040Z,101998.22
2023-01-23T18:00:56.255Z,101996.81
2023-01-23T18:03:25.614Z,102001.47
2023-01-23T18:05:54.368Z,102006.56
2023-01-23T18:08:23.680Z,102010.41
2023-01-23T18:10:56.344Z,102000.66
2023-01-23T18:13:35.664Z,101991.50
2023-01-23T18:16:12.757Z,101994.56
2023-01-23T18:18:43.073Z,101996.81
2023-01-23T18:21:18.185Z,101989.69
2023-01-23T18:23:47.017Z,101988.47
2023-01-23T18:26:36.090Z,101991.91
2023-01-23T18:29:20.394Z,101991.94
2023-01-23T18:32:00.634Z,102001.06
2023-01-23T18:34:38.424Z,101999.84
2023-01-23T18:37:16.006Z,101999.44
2023-01-23T18:39:59.028Z,102002.28
2023-01-23T18:42:35.702Z,102005.75
2023-01-23T18:45:06.421Z,102007.34
2023-01-23T18:47:36.328Z,102000.84
2023-01-23T18:50:05.294Z,101998.63
2023-01-23T18:52:45.837Z,101999.84
2023-01-23T18:55:23.426Z,101991.72
2023-01-23T18:58:19.798Z,101995.38
2023-01-23T19:00:54.168Z,102001.47
2023-01-23T19:03:36.351Z,101993.13
2023-01-23T19:06:13.051Z,101994.56
2023-01-23T19:08:41.545Z,101999.84
2023-01-23T19:11:23.743Z,102001.06
2023-01-23T19:14:02.200Z,102007.16
2023-01-23T19:16:32.313Z,102002.69
2023-01-23T19:19:16.353Z,102007.56
2023-01-23T19:21:47.842Z,102004.28
2023-01-23T19:24:19.430Z,102011.00
2023-01-23T19:26:48.292Z,102008.56
2023-01-23T19:29:22.401Z,102015.47
2023-01-23T19:32:04.261Z,102012.41
2023-01-23T19:34:35.793Z,102016.50
2023-01-23T19:37:04.398Z,102006.94
2023-01-23T19:39:33.079Z,102008.16
2023-01-23T19:42:02.724Z,102016.91
2023-01-23T19:44:31.116Z,102015.69
2023-01-23T19:46:59.529Z,102013.66
2023-01-23T19:49:27.761Z,102017.72
2023-01-23T19:51:57.306Z,102010.19
2023-01-23T19:54:25.742Z,102000.69
2023-01-23T19:56:54.679Z,101998.44
2023-01-23T19:59:24.613Z,101997.63
2023-01-23T20:01:55.101Z,102001.25
2023-01-23T20:04:25.011Z,102007.78
2023-01-23T20:06:53.727Z,102012.66
2023-01-23T20:09:23.789Z,102014.88
2023-01-23T20:11:52.926Z,102012.22
2023-01-23T20:14:22.330Z,102000.44
2023-01-23T20:16:50.624Z,102003.72
2023-01-23T20:19:19.613Z,102001.84
2023-01-23T20:21:48.720Z,101999.25
2023-01-23T20:24:18.003Z,102006.56
2023-01-23T20:26:47.954Z,102002.50
2023-01-23T20:29:16.300Z,102005.09
2023-01-23T20:31:44.775Z,101996.19
2023-01-23T20:34:14.169Z,102002.69
2023-01-23T20:36:42.817Z,102003.50
2023-01-23T20:39:13.358Z,102027.44
2023-01-23T20:41:41.705Z,102018.13
2023-01-23T20:44:11.508Z,102014.66
2023-01-23T20:46:39.818Z,102011.22
2023-01-23T20:49:08.059Z,102019.56
2023-01-23T20:51:36.185Z,102010.81
2023-01-23T20:54:03.483Z,102015.72
2023-01-23T20:56:31.761Z,102014.88
2023-01-23T20:59:17.387Z,102020.56
2023-01-23T21:02:07.742Z,102020.59
2023-01-23T21:04:37.582Z,102030.09
2023-01-23T21:07:05.893Z,102021.97
2023-01-23T21:09:34.005Z,102029.50
2023-01-23T21:12:02.331Z,102020.38
2023-01-23T21:14:31.243Z,102015.91
2023-01-23T21:17:00.759Z,102024.22
2023-01-23T21:19:29.661Z,102014.28
2023-01-23T21:21:59.106Z,102021.78
2023-01-23T21:24:27.766Z,102012.81
2023-01-23T21:26:56.652Z,102013.84
2023-01-23T21:29:24.794Z,102005.94
2023-01-23T21:31:53.097Z,102010.19
2023-01-23T21:34:22.683Z,102015.28
2023-01-23T21:36:51.102Z,102020.13
2023-01-23T21:39:20.139Z,102021.78
2023-01-23T21:41:48.350Z,102017.09
2023-01-23T21:44:16.709Z,102006.53
2023-01-23T21:46:46.664Z,102002.47
2023-01-23T21:49:14.760Z,102008.31
2023-01-23T21:51:44.809Z,102010.59
2023-01-23T21:54:13.365Z,102008.72
2023-01-23T21:56:41.451Z,102015.66
2023-01-23T21:59:09.720Z,102011.56
2023-01-23T22:01:37.801Z,102008.72
2023-01-23T22:04:11.995Z,102007.91
2023-01-23T22:06:42.278Z,102010.34
2023-01-23T22:09:15.992Z,102012.78
2023-01-23T22:11:44.218Z,102003.44
2023-01-23T22:14:12.478Z,102000.59
2023-01-23T22:16:48.392Z,101993.91
2023-01-23T22:19:24.895Z,101994.53
2023-01-23T22:22:02.880Z,102014.44
2023-01-23T22:24:33.055Z,102017.66
2023-01-23T22:29:40.422Z,102004.84
2023-01-23T22:32:16.564Z,102017.66
2023-01-23T22:34:48.174Z,102025.34
2023-01-23T22:37:17.118Z,102006.28
2023-01-23T22:39:48.230Z,102021.91
2023-01-23T22:42:19.345Z,102008.72
2023-01-23T22:44:47.937Z,101996.53
2023-01-23T22:47:17.043Z,102005.84
2023-01-23T22:49:45.775Z,102002.63
2023-01-23T22:52:14.068Z,101993.66
2023-01-23T22:54:42.650Z,101985.56
2023-01-23T23:00:05.963Z,101999.56
2023-01-23T23:02:35.466Z,101995.28
2023-01-23T23:05:04.786Z,102004.44
2023-01-23T23:07:37.251Z,102007.47
2023-01-23T23:10:06.346Z,101998.50
2023-01-23T23:12:39.248Z,101995.88
2023-01-23T23:15:09.099Z,102002.16
2023-01-23T23:17:37.408Z,101996.28
2023-01-23T23:20:07.483Z,102007.00
2023-01-23T23:22:35.761Z,101989.16
2023-01-23T23:25:03.956Z,102004.78
2023-01-23T23:27:40.381Z,102003.34
2023-01-23T23:30:12.518Z,102004.13
2023-01-23T23:32:42.048Z,102000.44
2023-01-23T23:35:13.437Z,101997.66
2023-01-23T23:37:42.412Z,102004.56
2023-01-23T23:40:12.108Z,102004.56
2023-01-23T23:42:40.236Z,102008.41
2023-01-23T23:45:10.935Z,102011.66
2023-01-23T23:47:39.040Z,102016.72
2023-01-23T23:50:08.242Z,102012.44
2023-01-23T23:52:36.960Z,102010.00
2023-01-23T23:55:05.492Z,102018.56
2023-01-23T23:57:33.646Z,102008.56
